createdAt,value
2019-05-06T00:01:55.717Z,59.99
2019-05-06T00:04:27.324Z,59.13
2019-05-06T00:06:59.090Z,57.74
2019-05-06T00:09:30.643Z,57.15
2019-05-06T00:12:04.012Z,58.01
2019-05-06T00:14:35.667Z,57.42
2019-05-06T00:17:07.440Z,58.44
2019-05-06T00:19:38.961Z,57.65
2019-05-06T00:22:10.583Z,58.32
2019-05-06T00:24:49.800Z,62.62
2019-05-06T00:27:34.199Z,64.89
2019-05-06T00:30:06.891Z,65.66
2019-05-06T00:32:38.918Z,64.95
2019-05-06T00:35:10.392Z,63.36
2019-05-06T00:37:44.136Z,63.71
2019-05-06T00:40:24.414Z,63.32
2019-05-06T00:43:04.672Z,63.47
2019-05-06T00:45:35.929Z,63.89
2019-05-06T00:48:07.827Z,63.95
2019-05-06T00:50:39.583Z,66.14
2019-05-06T00:53:14.158Z,66.81
2019-05-06T00:55:45.929Z,65.80
2019-05-06T00:58:17.464Z,66.03
2019-05-06T01:00:49.144Z,65.25
2019-05-06T01:03:20.627Z,65.31
2019-05-06T01:05:54.261Z,64.33
2019-05-06T01:08:25.569Z,63.87
2019-05-06T01:10:57.200Z,64.24
2019-05-06T01:13:54.487Z,64.23
2019-05-06T01:16:26.387Z,64.68
2019-05-06T01:18:57.920Z,65.20
2019-05-06T01:21:29.886Z,65.64
2019-05-06T01:24:03.790Z,66.46
2019-05-06T01:26:34.962Z,65.67
2019-05-06T01:29:06.513Z,64.94
2019-05-06T01:31:42.923Z,65.95
2019-05-06T01:34:13.655Z,65.60
2019-05-06T01:36:44.706Z,64.40
2019-05-06T01:39:44.367Z,64.23
2019-05-06T01:42:31.211Z,64.94
2019-05-06T01:45:04.750Z,65.84
2019-05-06T01:47:36.094Z,65.66
2019-05-06T01:50:09.489Z,65.61
2019-05-06T01:52:41.329Z,65.79
2019-05-06T01:55:14.182Z,66.89
2019-05-06T01:57:45.880Z,65.08
2019-05-06T02:00:19.390Z,65.60
2019-05-06T02:02:51.077Z,67.66
2019-05-06T02:05:24.238Z,67.90
2019-05-06T02:07:56.165Z,66.57
2019-05-06T02:10:27.694Z,62.85
2019-05-06T02:12:59.510Z,61.37
2019-05-06T02:15:31.087Z,59.33
2019-05-06T02:18:04.123Z,59.34
2019-05-06T02:20:37.653Z,57.71
2019-05-06T02:23:14.784Z,57.47
2019-05-06T02:25:51.212Z,56.79
2019-05-06T02:28:23.647Z,56.58
2019-05-06T02:31:14.793Z,55.72
2019-05-06T02:33:56.988Z,55.71
2019-05-06T02:36:50.993Z,56.59
2019-05-06T02:39:23.493Z,56.39
2019-05-06T02:41:55.275Z,56.05
2019-05-06T02:44:26.830Z,56.03
2019-05-06T02:47:07.358Z,55.02
2019-05-06T02:49:44.281Z,54.65
2019-05-06T02:52:15.993Z,54.21
2019-05-06T02:54:47.839Z,54.17
2019-05-06T02:57:19.372Z,53.99
2019-05-06T02:59:54.840Z,54.01
2019-05-06T03:02:38.674Z,53.97
2019-05-06T03:04:57.756Z,54.58
2019-05-06T03:07:32.627Z,54.40
2019-05-06T03:10:04.201Z,54.53
2019-05-06T03:12:35.982Z,54.35
2019-05-06T03:15:07.547Z,54.92
2019-05-06T03:17:39.118Z,54.85
2019-05-06T03:20:16.001Z,55.14
2019-05-06T03:22:58.421Z,55.08
2019-05-06T03:25:33.600Z,55.73
2019-05-06T03:28:05.387Z,55.71
2019-05-06T03:30:36.939Z,56.45
2019-05-06T03:33:37.575Z,56.40
2019-05-06T03:35:56.480Z,56.07
2019-05-06T03:38:14.893Z,56.06
2019-05-06T03:40:46.446Z,56.41
2019-05-06T03:43:18.016Z,56.78
2019-05-06T03:46:26.643Z,57.61
2019-05-06T03:49:03.664Z,57.41
2019-05-06T03:51:36.567Z,58.39
2019-05-06T03:54:08.193Z,58.45
2019-05-06T03:56:43.160Z,58.28
2019-05-06T03:59:16.205Z,58.11
2019-05-06T04:01:48.083Z,58.18
2019-05-06T04:04:19.568Z,58.24
2019-05-06T04:06:53.700Z,58.20
2019-05-06T04:09:24.763Z,58.57
2019-05-06T04:11:57.470Z,58.77
2019-05-06T04:14:29.700Z,57.57
2019-05-06T04:17:23.654Z,57.28
2019-05-06T04:20:04.338Z,57.46
2019-05-06T04:22:58.811Z,57.14
2019-05-06T04:25:46.080Z,57.40
2019-05-06T04:28:20.019Z,57.26
2019-05-06T04:30:54.843Z,57.57
2019-05-06T04:33:28.034Z,57.89
2019-05-06T04:36:03.389Z,58.45
2019-05-06T04:38:34.087Z,59.79
2019-05-06T04:41:05.812Z,60.32
2019-05-06T04:43:37.898Z,59.95
2019-05-06T04:46:16.496Z,59.88
2019-05-06T04:48:45.101Z,59.85
2019-05-06T04:51:17.067Z,59.71
2019-05-06T04:53:49.699Z,59.73
2019-05-06T04:56:23.666Z,59.81
2019-05-06T04:58:54.934Z,59.40
2019-05-06T05:01:26.532Z,59.37
2019-05-06T05:03:58.516Z,59.47
2019-05-06T05:06:32.678Z,59.84
2019-05-06T05:09:06.405Z,60.17
2019-05-06T05:11:47.682Z,60.08
2019-05-06T05:14:38.253Z,60.25
2019-05-06T05:17:25.358Z,60.64
2019-05-06T05:19:56.924Z,61.17
2019-05-06T05:22:28.534Z,61.59
2019-05-06T05:25:03.278Z,61.87
2019-05-06T05:27:34.262Z,62.20
2019-05-06T05:30:06.639Z,62.71
2019-05-06T05:32:38.372Z,63.09
2019-05-06T05:35:12.755Z,63.24
2019-05-06T05:37:44.456Z,63.44
2019-05-06T05:40:16.451Z,63.31
2019-05-06T05:43:11.703Z,63.20
2019-05-06T05:45:43.668Z,62.69
2019-05-06T05:48:28.187Z,61.97
2019-05-06T05:51:18.769Z,62.10
2019-05-06T05:53:52.314Z,62.50
2019-05-06T05:56:24.170Z,62.42
2019-05-06T05:58:55.904Z,61.86
2019-05-06T06:01:27.514Z,61.45
2019-05-06T06:03:59.549Z,60.81
2019-05-06T06:06:33.015Z,60.30
2019-05-06T06:09:06.046Z,59.73
2019-05-06T06:11:58.345Z,59.61
2019-05-06T06:14:48.803Z,60.21
2019-05-06T06:17:39.008Z,61.80
2019-05-06T06:20:28.562Z,63.19
2019-05-06T06:23:05.251Z,63.74
2019-05-06T06:25:37.365Z,63.97
2019-05-06T06:28:08.959Z,64.45
2019-05-06T06:30:52.009Z,64.84
2019-05-06T06:33:23.331Z,66.22
2019-05-06T06:36:07.421Z,67.51
2019-05-06T06:38:58.041Z,67.17
2019-05-06T06:41:29.765Z,67.05
2019-05-06T06:44:04.388Z,66.96
2019-05-06T06:46:36.007Z,67.12
2019-05-06T06:49:08.174Z,66.93
2019-05-06T06:51:42.303Z,66.48
2019-05-06T06:54:13.421Z,67.11
2019-05-06T06:57:05.546Z,67.00
2019-05-06T06:59:31.771Z,67.20
2019-05-06T07:02:13.344Z,67.15
2019-05-06T07:05:24.802Z,66.38
2019-05-06T07:07:47.600Z,66.55
2019-05-06T07:10:37.317Z,66.76
2019-05-06T07:13:09.016Z,66.52
2019-05-06T07:15:42.636Z,66.55
2019-05-06T07:18:14.061Z,66.23
2019-05-06T07:21:05.193Z,66.42
2019-05-06T07:23:36.779Z,66.06
2019-05-06T07:26:12.161Z,65.83
2019-05-06T07:28:44.076Z,65.88
2019-05-06T07:31:22.256Z,65.53
2019-05-06T07:33:49.012Z,65.87
2019-05-06T07:36:22.685Z,65.26
2019-05-06T07:38:54.188Z,65.28
2019-05-06T07:41:36.403Z,65.25
2019-05-06T07:44:34.835Z,65.43
2019-05-06T07:47:27.997Z,65.66
2019-05-06T07:50:02.241Z,65.79
2019-05-06T07:52:32.929Z,65.36
2019-05-06T07:55:04.559Z,64.38
2019-05-06T07:57:36.313Z,63.86
2019-05-06T08:00:08.662Z,64.44
2019-05-06T08:02:40.190Z,64.08
2019-05-06T08:05:13.249Z,64.37
2019-05-06T08:07:44.773Z,65.37
2019-05-06T08:10:16.563Z,64.66
2019-05-06T08:12:48.134Z,64.75
2019-05-06T08:15:19.747Z,64.61
2019-05-06T08:17:52.391Z,64.30
2019-05-06T08:20:25.947Z,64.00
2019-05-06T08:23:09.949Z,64.68
2019-05-06T08:25:49.860Z,62.62
2019-05-06T08:28:22.564Z,61.82
2019-05-06T08:30:54.502Z,62.87
2019-05-06T08:33:27.740Z,63.95
2019-05-06T08:36:08.962Z,61.36
2019-05-06T08:38:54.671Z,60.71
2019-05-06T08:41:27.747Z,60.92
2019-05-06T08:43:59.576Z,61.70
2019-05-06T08:46:32.688Z,61.08
2019-05-06T08:49:04.681Z,61.31
2019-05-06T08:51:53.114Z,62.55
2019-05-06T08:54:36.260Z,61.71
2019-05-06T08:57:08.082Z,61.18
2019-05-06T08:59:42.346Z,61.75
2019-05-06T09:02:14.179Z,62.91
2019-05-06T09:04:45.722Z,62.62
2019-05-06T09:07:17.324Z,61.66
2019-05-06T09:09:49.114Z,61.92
2019-05-06T09:12:22.341Z,62.07
2019-05-06T09:14:54.245Z,61.53
2019-05-06T09:17:27.922Z,63.43
2019-05-06T09:19:59.513Z,63.45
2019-05-06T09:22:32.746Z,63.71
2019-05-06T09:25:04.814Z,63.78
2019-05-06T09:28:14.004Z,63.28
2019-05-06T09:30:49.349Z,63.96
2019-05-06T09:33:26.077Z,63.56
2019-05-06T09:35:57.611Z,64.41
2019-05-06T09:38:29.209Z,63.87
2019-05-06T09:41:04.781Z,63.61
2019-05-06T09:43:34.264Z,63.92
2019-05-06T09:46:06.139Z,64.23
2019-05-06T09:48:55.875Z,64.17
2019-05-06T09:51:27.440Z,63.35
2019-05-06T09:54:07.546Z,62.81
2019-05-06T09:56:50.405Z,63.52
2019-05-06T09:59:22.045Z,62.66
2019-05-06T10:01:53.884Z,62.89
2019-05-06T10:04:25.453Z,62.39
2019-05-06T10:07:00.021Z,61.97
2019-05-06T10:09:32.618Z,62.54
2019-05-06T10:12:04.586Z,61.41
2019-05-06T10:14:36.154Z,60.63
2019-05-06T10:17:07.724Z,59.97
2019-05-06T10:19:39.773Z,59.92
2019-05-06T10:22:12.677Z,58.74
2019-05-06T10:24:44.496Z,58.75
2019-05-06T10:27:16.381Z,58.39
2019-05-06T10:29:54.169Z,57.22
2019-05-06T10:32:43.382Z,56.98
2019-05-06T10:35:16.086Z,58.16
2019-05-06T10:38:42.370Z,58.53
2019-05-06T10:41:22.205Z,57.97
2019-05-06T10:44:38.461Z,58.16
2019-05-06T10:47:12.034Z,57.26
2019-05-06T10:49:44.099Z,57.55
2019-05-06T10:52:21.908Z,56.77
2019-05-06T10:54:53.672Z,56.34
2019-05-06T10:57:40.368Z,55.36
2019-05-06T11:00:12.656Z,54.77
2019-05-06T11:02:57.181Z,54.20
2019-05-06T11:05:28.765Z,54.10
2019-05-06T11:08:02.239Z,53.23
2019-05-06T11:10:40.835Z,51.53
2019-05-06T11:13:07.238Z,51.73
2019-05-06T11:15:39.013Z,50.19
2019-05-06T11:18:13.594Z,49.77
2019-05-06T11:20:45.121Z,48.59
2019-05-06T11:23:16.676Z,47.74
2019-05-06T11:25:48.313Z,45.43
2019-05-06T11:28:38.396Z,46.30
2019-05-06T11:31:22.956Z,44.67
2019-05-06T11:34:21.986Z,44.05
2019-05-06T11:37:14.802Z,44.74
2019-05-06T11:39:46.355Z,43.93
2019-05-06T11:42:31.857Z,43.47
2019-05-06T11:44:53.121Z,42.44
2019-05-06T11:47:24.954Z,42.88
2019-05-06T11:49:58.158Z,42.31
2019-05-06T11:52:29.862Z,42.46
2019-05-06T11:55:02.229Z,43.00
2019-05-06T11:57:34.345Z,45.15
2019-05-06T12:00:07.500Z,46.11
2019-05-06T12:02:42.112Z,47.06
2019-05-06T12:05:14.979Z,46.85
2019-05-06T12:08:01.089Z,46.22
2019-05-06T12:10:22.328Z,46.65
2019-05-06T12:12:53.938Z,47.23
2019-05-06T12:15:25.489Z,50.57
2019-05-06T12:17:57.165Z,52.14
2019-05-06T12:20:28.681Z,54.21
2019-05-06T12:23:03.902Z,52.60
2019-05-06T12:25:33.762Z,53.07
2019-05-06T12:28:05.531Z,52.30
2019-05-06T12:30:37.077Z,51.62
2019-05-06T12:33:36.831Z,50.36
2019-05-06T12:36:19.116Z,50.60
2019-05-06T12:39:14.864Z,51.53
2019-05-06T12:42:15.007Z,50.43
2019-05-06T12:45:04.695Z,47.86
2019-05-06T12:47:50.157Z,48.37
2019-05-06T12:50:22.783Z,50.68
2019-05-06T12:52:57.727Z,51.29
2019-05-06T12:55:28.763Z,47.57
2019-05-06T12:58:00.325Z,48.27
2019-05-06T13:00:33.842Z,48.06
2019-05-06T13:03:06.005Z,47.94
2019-05-06T13:05:37.792Z,47.95
2019-05-06T13:08:09.695Z,49.39
2019-05-06T13:10:42.132Z,49.86
2019-05-06T13:13:14.049Z,52.13
2019-05-06T13:15:45.655Z,50.99
2019-05-06T13:18:17.493Z,51.11
2019-05-06T13:20:51.755Z,51.61
2019-05-06T13:23:41.651Z,52.16
2019-05-06T13:26:13.624Z,53.09
2019-05-06T13:28:50.193Z,53.96
2019-05-06T13:31:25.461Z,55.08
2019-05-06T13:33:58.570Z,55.10
2019-05-06T13:36:33.123Z,57.29
2019-05-06T13:39:14.061Z,58.70
2019-05-06T13:41:41.972Z,59.93
2019-05-06T13:44:15.050Z,57.92
2019-05-06T13:46:53.376Z,56.69
2019-05-06T13:49:46.031Z,57.03
2019-05-06T13:52:24.606Z,57.57
2019-05-06T13:54:57.222Z,56.56
2019-05-06T13:57:29.319Z,57.64
2019-05-06T14:00:03.068Z,58.66
2019-05-06T14:02:45.575Z,59.43
2019-05-06T14:05:18.805Z,60.09
2019-05-06T14:07:52.806Z,59.47
2019-05-06T14:10:23.690Z,59.36
2019-05-06T14:12:55.696Z,58.52
2019-05-06T14:15:27.620Z,58.33
2019-05-06T14:17:59.154Z,58.13
2019-05-06T14:20:30.926Z,55.21
2019-05-06T14:23:02.651Z,55.75
2019-05-06T14:25:56.243Z,53.15
2019-05-06T14:28:37.736Z,52.91
2019-05-06T14:31:14.785Z,53.89
2019-05-06T14:33:46.314Z,55.10
2019-05-06T14:36:17.907Z,56.19
2019-05-06T14:38:49.441Z,55.42
2019-05-06T14:41:27.080Z,55.98
2019-05-06T14:43:57.438Z,56.46
2019-05-06T14:46:47.842Z,55.47
2019-05-06T14:49:22.315Z,55.12
2019-05-06T14:51:53.791Z,55.12
2019-05-06T14:54:25.367Z,55.75
2019-05-06T14:57:02.704Z,56.14
2019-05-06T14:59:34.640Z,56.89
2019-05-06T15:02:06.427Z,56.51
2019-05-06T15:04:38.043Z,56.96
2019-05-06T15:07:12.767Z,57.04
2019-05-06T15:09:55.666Z,56.74
2019-05-06T15:12:18.742Z,56.59
2019-05-06T15:14:52.670Z,56.84
2019-05-06T15:17:24.109Z,57.69
2019-05-06T15:19:55.808Z,58.17
2019-05-06T15:22:28.760Z,56.90
2019-05-06T15:25:02.396Z,56.71
2019-05-06T15:27:34.269Z,57.62
2019-05-06T15:30:12.351Z,57.29
2019-05-06T15:32:45.649Z,56.16
2019-05-06T15:35:36.233Z,54.40
2019-05-06T15:38:13.946Z,53.28
2019-05-06T15:40:45.547Z,53.76
2019-05-06T15:43:18.657Z,54.21
2019-05-06T15:45:52.602Z,54.83
2019-05-06T15:48:24.481Z,56.58
2019-05-06T15:50:56.316Z,57.60
2019-05-06T15:53:27.914Z,58.33
2019-05-06T15:55:59.481Z,57.21
2019-05-06T15:58:34.892Z,55.98
2019-05-06T16:01:06.902Z,56.83
2019-05-06T16:03:38.759Z,57.49
2019-05-06T16:06:12.430Z,57.20
2019-05-06T16:08:44.521Z,55.60
2019-05-06T16:11:16.749Z,55.88
2019-05-06T16:13:48.952Z,55.80
2019-05-06T16:16:22.824Z,55.65
2019-05-06T16:18:55.201Z,56.03
2019-05-06T16:21:26.945Z,55.89
2019-05-06T16:24:04.501Z,55.64
2019-05-06T16:26:36.675Z,56.01
2019-05-06T16:29:08.827Z,56.12
2019-05-06T16:31:43.113Z,56.53
2019-05-06T16:34:15.642Z,56.05
2019-05-06T16:36:47.450Z,56.71
2019-05-06T16:39:22.994Z,55.37
2019-05-06T16:41:55.563Z,55.95
2019-05-06T16:44:28.217Z,56.41
2019-05-06T16:47:00.086Z,56.64
2019-05-06T16:49:33.594Z,55.59
2019-05-06T16:52:05.643Z,55.99
2019-05-06T16:54:37.501Z,56.88
2019-05-06T16:57:19.726Z,55.79
2019-05-06T16:59:52.295Z,55.27
2019-05-06T17:02:29.454Z,54.34
2019-05-06T17:05:26.477Z,54.90
2019-05-06T17:07:59.447Z,55.74
2019-05-06T17:10:32.669Z,55.63
2019-05-06T17:13:04.997Z,55.54
2019-05-06T17:15:36.627Z,55.06
2019-05-06T17:18:08.394Z,54.77
2019-05-06T17:20:40.112Z,55.06
2019-05-06T17:23:13.358Z,54.04
2019-05-06T17:25:44.902Z,53.85
2019-05-06T17:28:23.847Z,53.50
2019-05-06T17:31:03.607Z,53.55
2019-05-06T17:33:37.841Z,53.62
2019-05-06T17:36:12.711Z,52.53
2019-05-06T17:38:49.054Z,52.87
2019-05-06T17:41:23.758Z,52.89
2019-05-06T17:43:56.321Z,52.73
2019-05-06T17:46:29.885Z,52.00
2019-05-06T17:49:05.085Z,51.45
2019-05-06T17:51:43.062Z,52.39
2019-05-06T17:54:14.827Z,51.11
2019-05-06T17:56:46.469Z,51.97
2019-05-06T17:59:18.421Z,52.36
2019-05-06T18:01:53.724Z,53.04
2019-05-06T18:04:25.323Z,53.13
2019-05-06T18:06:57.402Z,53.10
2019-05-06T18:09:29.260Z,52.53
2019-05-06T18:12:03.067Z,52.68
2019-05-06T18:14:34.472Z,52.27
2019-05-06T18:17:06.689Z,51.81
2019-05-06T18:19:38.577Z,52.18
2019-05-06T18:22:10.339Z,52.97
2019-05-06T18:24:42.065Z,53.34
2019-05-06T18:27:14.047Z,53.16
2019-05-06T18:29:45.977Z,53.52
2019-05-06T18:32:17.696Z,52.89
2019-05-06T18:34:49.634Z,54.24
2019-05-06T18:37:22.823Z,54.23
2019-05-06T18:39:55.454Z,53.98
2019-05-06T18:42:27.450Z,53.63
2019-05-06T18:44:59.516Z,54.59
2019-05-06T18:47:33.101Z,54.23
2019-05-06T18:50:07.463Z,54.57
2019-05-06T18:52:39.785Z,54.98
2019-05-06T18:55:12.552Z,56.37
2019-05-06T18:57:44.568Z,56.67
2019-05-06T19:00:17.337Z,56.35
2019-05-06T19:02:49.115Z,56.61
2019-05-06T19:05:27.068Z,56.91
2019-05-06T19:07:59.382Z,56.83
2019-05-06T19:10:33.319Z,57.90
2019-05-06T19:13:08.290Z,57.87
2019-05-06T19:15:38.849Z,58.48
2019-05-06T19:18:12.812Z,58.19
2019-05-06T19:20:45.246Z,57.91
2019-05-06T19:23:17.031Z,58.37
2019-05-06T19:25:49.422Z,59.03
2019-05-06T19:28:21.979Z,58.76
2019-05-06T19:30:54.363Z,59.22
2019-05-06T19:33:27.000Z,58.55
2019-05-06T19:35:58.716Z,58.98
2019-05-06T19:38:33.533Z,58.18
2019-05-06T19:41:06.033Z,58.59
2019-05-06T19:43:41.797Z,58.32
2019-05-06T19:46:13.944Z,57.94
2019-05-06T19:48:45.745Z,57.40
2019-05-06T19:51:17.394Z,58.20
2019-05-06T19:53:49.629Z,61.66
2019-05-06T19:56:23.320Z,61.32
2019-05-06T19:58:56.648Z,61.74
2019-05-06T20:01:28.452Z,60.12
2019-05-06T20:04:02.293Z,59.36
2019-05-06T20:06:40.026Z,58.69
2019-05-06T20:09:46.664Z,58.20
2019-05-06T20:12:28.548Z,58.22
2019-05-06T20:15:19.260Z,58.12
2019-05-06T20:17:52.078Z,58.07
2019-05-06T20:20:24.303Z,58.12
2019-05-06T20:22:57.809Z,58.06
2019-05-06T20:25:29.529Z,58.32
2019-05-06T20:28:02.351Z,58.09
2019-05-06T20:30:34.610Z,58.32
2019-05-06T20:33:06.841Z,58.15
2019-05-06T20:35:38.499Z,58.22
2019-05-06T20:38:12.292Z,59.72
2019-05-06T20:40:44.360Z,60.88
2019-05-06T20:43:23.075Z,60.69
2019-05-06T20:45:52.289Z,61.18
2019-05-06T20:48:24.128Z,61.83
2019-05-06T20:50:56.047Z,62.94
2019-05-06T20:53:28.177Z,63.42
2019-05-06T20:56:02.990Z,63.16
2019-05-06T20:58:35.154Z,62.75
2019-05-06T21:01:06.823Z,62.32
2019-05-06T21:03:39.283Z,62.00
2019-05-06T21:06:13.096Z,62.00
2019-05-06T21:08:44.710Z,63.29
2019-05-06T21:11:26.514Z,65.02
2019-05-06T21:13:49.650Z,66.17
2019-05-06T21:16:22.479Z,66.76
2019-05-06T21:18:54.799Z,67.58
2019-05-06T21:21:26.684Z,66.97
2019-05-06T21:23:58.566Z,66.22
2019-05-06T21:26:32.876Z,65.51
2019-05-06T21:29:03.910Z,65.25
2019-05-06T21:31:36.322Z,65.11
2019-05-06T21:34:08.194Z,65.85
2019-05-06T21:36:42.066Z,64.93
2019-05-06T21:39:13.400Z,64.84
2019-05-06T21:41:46.018Z,64.27
2019-05-06T21:44:17.620Z,63.79
2019-05-06T21:46:49.265Z,63.94
2019-05-06T21:49:22.918Z,64.07
2019-05-06T21:51:55.564Z,63.86
2019-05-06T21:54:27.223Z,63.90
2019-05-06T21:56:58.833Z,63.91
2019-05-06T21:59:30.505Z,63.51
2019-05-06T22:02:03.197Z,63.09
2019-05-06T22:04:35.057Z,63.24
2019-05-06T22:07:07.092Z,63.61
2019-05-06T22:09:38.664Z,63.39
2019-05-06T22:12:10.191Z,63.34
2019-05-06T22:14:42.319Z,63.43
2019-05-06T22:17:14.356Z,64.40
2019-05-06T22:19:47.000Z,65.69
2019-05-06T22:22:21.253Z,66.72
2019-05-06T22:24:57.580Z,67.21
2019-05-06T22:27:29.832Z,66.09
2019-05-06T22:30:03.235Z,64.80
2019-05-06T22:32:45.999Z,64.63
2019-05-06T22:35:18.380Z,65.33
2019-05-06T22:37:52.745Z,65.25
2019-05-06T22:40:26.842Z,65.33
2019-05-06T22:42:58.433Z,65.08
2019-05-06T22:45:30.115Z,64.43
2019-05-06T22:48:02.130Z,63.83
2019-05-06T22:50:35.054Z,65.90
2019-05-06T22:53:06.630Z,65.95
2019-05-06T22:55:42.675Z,65.32
2019-05-06T22:58:13.912Z,65.37
2019-05-06T23:00:50.364Z,67.41
2019-05-06T23:03:23.884Z,66.89
2019-05-06T23:05:55.476Z,67.20
2019-05-06T23:08:27.155Z,68.62
2019-05-06T23:10:58.725Z,69.34
2019-05-06T23:13:30.606Z,69.04
2019-05-06T23:16:02.317Z,68.80
2019-05-06T23:18:33.816Z,67.61
2019-05-06T23:21:05.639Z,67.54
2019-05-06T23:23:37.158Z,67.35
2019-05-06T23:26:22.707Z,68.12
2019-05-06T23:28:53.818Z,67.87
2019-05-06T23:31:27.553Z,66.96
2019-05-06T23:33:59.075Z,66.13
2019-05-06T23:37:25.517Z,65.53
2019-05-06T23:40:52.182Z,65.09
2019-05-06T23:44:17.807Z,65.95
2019-05-06T23:47:44.298Z,66.60
2019-05-06T23:51:12.724Z,66.44
2019-05-06T23:54:38.093Z,65.86
2019-05-06T23:57:08.760Z,65.93
2019-05-06T23:59:42.964Z,68.48
